Terminal Aerodrome Forecast
Issued by NWS Sioux Falls, SD

Home | Current Version | Previous Version | Graphics & Text | Print | Product List | Glossary On
Versions: 1 2 3 4 5 6 7 8 9 10 11 12 13 14 15 16
935
FTUS43 KFSD 061720
TAFFSD
TAF
KFSD 061720Z 0618/0718 21011KT P6SM OVC100
     FM070200 26010KT P6SM BKN100
     FM070500 28014G20KT P6SM SKC WS010/30045KT
     FM071300 28016G24KT P6SM SCT150
     FM071500 28019G29KT P6SM SCT150=

USA.gov is the U.S. government's official web portal to all federal, state and local government web resources and services.